createdAt,value
2019-01-02T00:01:35.815Z,5.97
2019-01-02T00:04:08.260Z,7.57
2019-01-02T00:06:40.277Z,8.43
2019-01-02T00:09:12.719Z,6.40
2019-01-02T00:11:44.723Z,9.63
2019-01-02T00:14:16.731Z,3.73
2019-01-02T00:16:48.959Z,6.70
2019-01-02T00:19:20.977Z,6.80
2019-01-02T00:21:53.374Z,5.37
2019-01-02T00:24:25.456Z,6.57
2019-01-02T00:26:57.505Z,7.10
2019-01-02T00:29:29.925Z,5.97
2019-01-02T00:32:01.893Z,7.23
2019-01-02T00:34:34.243Z,5.70
2019-01-02T00:37:06.235Z,7.87
2019-01-02T00:39:38.552Z,4.47
2019-01-02T00:42:11.253Z,6.17
2019-01-02T00:44:43.287Z,10.80
2019-01-02T00:47:15.264Z,7.23
2019-01-02T00:49:47.293Z,4.87
2019-01-02T00:52:19.692Z,6.20
2019-01-02T00:54:51.702Z,3.87
2019-01-02T00:57:23.992Z,4.10
2019-01-02T00:59:55.993Z,2.77
2019-01-02T01:02:28.421Z,4.23
2019-01-02T01:05:00.441Z,5.97
2019-01-02T01:07:32.863Z,4.53
2019-01-02T01:10:07.799Z,4.60
2019-01-02T01:12:40.129Z,4.43
2019-01-02T01:15:12.150Z,5.07
2019-01-02T01:17:44.471Z,5.37
2019-01-02T01:20:18.528Z,6.60
2019-01-02T01:22:50.508Z,3.23
2019-01-02T01:25:22.923Z,3.93
2019-01-02T01:27:54.916Z,6.33
2019-01-02T01:30:26.929Z,5.87
2019-01-02T01:32:58.887Z,5.70
2019-01-02T01:35:30.897Z,5.50
2019-01-02T01:38:02.856Z,8.13
2019-01-02T01:40:34.836Z,5.30
2019-01-02T01:43:06.847Z,6.93
2019-01-02T01:45:39.164Z,6.77
2019-01-02T01:48:11.137Z,6.17
2019-01-02T01:50:43.148Z,7.90
2019-01-02T01:53:15.451Z,8.47
2019-01-02T01:55:47.418Z,5.10
2019-01-02T01:58:19.407Z,7.23
2019-01-02T02:00:51.848Z,7.80
2019-01-02T02:03:23.845Z,7.13
2019-01-02T02:05:55.889Z,7.87
2019-01-02T02:08:28.281Z,9.83
2019-01-02T02:11:00.307Z,7.93
2019-01-02T02:13:32.296Z,9.50
2019-01-02T02:16:04.677Z,8.33
2019-01-02T02:18:36.660Z,9.67
2019-01-02T02:21:08.723Z,9.87
2019-01-02T02:23:40.715Z,8.07
2019-01-02T02:26:12.680Z,6.70
2019-01-02T02:28:45.073Z,6.67
2019-01-02T02:31:17.028Z,9.33
2019-01-02T02:33:49.258Z,6.23
2019-01-02T02:36:21.635Z,7.53
2019-01-02T02:38:53.917Z,9.50
2019-01-02T02:41:26.209Z,8.97
2019-01-02T02:43:58.585Z,10.50
2019-01-02T02:46:30.844Z,11.10
2019-01-02T02:49:02.841Z,12.53
2019-01-02T02:51:35.242Z,11.63
2019-01-02T02:54:07.713Z,10.30
2019-01-02T02:56:41.493Z,9.13
2019-01-02T02:59:13.854Z,12.00
2019-01-02T03:01:46.229Z,16.10
2019-01-02T03:04:18.307Z,8.83
2019-01-02T03:06:53.004Z,12.00
2019-01-02T03:09:24.583Z,9.93
2019-01-02T03:11:56.611Z,9.30
2019-01-02T03:14:28.565Z,11.17
2019-01-02T03:17:00.965Z,9.57
2019-01-02T03:19:33.241Z,10.17
2019-01-02T03:22:05.514Z,10.17
2019-01-02T03:24:37.852Z,12.77
2019-01-02T03:27:10.125Z,10.67
2019-01-02T03:29:42.081Z,12.27
2019-01-02T03:32:14.084Z,10.63
2019-01-02T03:34:46.457Z,11.37
2019-01-02T03:37:18.452Z,11.53
2019-01-02T03:39:50.443Z,12.77
2019-01-02T03:42:22.421Z,12.13
2019-01-02T03:44:54.364Z,11.37
2019-01-02T03:47:26.345Z,11.20
2019-01-02T03:49:58.284Z,5.67
2019-01-02T03:52:30.256Z,10.40
2019-01-02T03:55:02.242Z,8.97
2019-01-02T03:57:34.237Z,10.30
2019-01-02T04:00:09.202Z,8.37
2019-01-02T04:02:41.176Z,12.93
2019-01-02T04:05:14.991Z,11.37
2019-01-02T04:07:53.301Z,11.10
2019-01-02T04:10:26.146Z,10.53
2019-01-02T04:12:58.142Z,12.93
2019-01-02T04:15:30.113Z,7.57
2019-01-02T04:18:02.093Z,14.03
2019-01-02T04:20:34.060Z,8.53
2019-01-02T04:23:06.035Z,7.77
2019-01-02T04:25:37.984Z,10.00
2019-01-02T04:28:09.995Z,10.33
2019-01-02T04:30:41.966Z,11.60
2019-01-02T04:33:13.972Z,14.50
2019-01-02T04:35:45.935Z,11.33
2019-01-02T04:38:17.947Z,10.07
2019-01-02T04:40:49.895Z,7.67
2019-01-02T04:43:21.866Z,12.53
2019-01-02T04:45:53.833Z,12.70
2019-01-02T04:48:25.789Z,10.67
2019-01-02T04:50:57.779Z,14.73
2019-01-02T04:53:29.830Z,15.97
2019-01-02T04:56:03.420Z,11.00
2019-01-02T04:58:35.551Z,11.03
2019-01-02T05:01:07.540Z,10.90
2019-01-02T05:03:39.495Z,14.63
2019-01-02T05:06:11.608Z,12.73
2019-01-02T05:08:43.584Z,10.00
2019-01-02T05:11:15.609Z,15.27
2019-01-02T05:13:47.576Z,9.53
2019-01-02T05:16:19.546Z,15.27
2019-01-02T05:18:51.558Z,10.07
2019-01-02T05:21:23.586Z,10.80
2019-01-02T05:23:55.839Z,13.87
2019-01-02T05:26:27.805Z,13.33
2019-01-02T05:28:59.767Z,14.57
2019-01-02T05:31:31.961Z,13.93
2019-01-02T05:34:03.923Z,13.40
2019-01-02T05:36:35.931Z,14.77
2019-01-02T05:39:07.973Z,13.73
2019-01-02T05:41:39.968Z,13.70
2019-01-02T05:44:11.939Z,13.20
2019-01-02T05:46:43.949Z,9.17
2019-01-02T05:49:15.908Z,11.20
2019-01-02T05:51:47.892Z,20.53
2019-01-02T05:54:20.132Z,14.00
2019-01-02T05:56:52.146Z,13.20
2019-01-02T05:59:24.111Z,17.37
2019-01-02T06:01:56.119Z,18.43
2019-01-02T06:04:28.111Z,14.93
2019-01-02T06:07:00.080Z,15.23
2019-01-02T06:09:32.058Z,14.10
2019-01-02T06:12:04.077Z,16.90
2019-01-02T06:14:36.141Z,19.10
2019-01-02T06:17:08.131Z,15.93
2019-01-02T06:19:40.141Z,20.90
2019-01-02T06:22:12.137Z,13.77
2019-01-02T06:24:44.175Z,9.50
2019-01-02T06:27:16.155Z,16.30
2019-01-02T06:29:48.165Z,12.73
2019-01-02T06:32:20.146Z,9.67
2019-01-02T06:34:52.164Z,15.40
2019-01-02T06:37:24.162Z,14.07
2019-01-02T06:39:56.168Z,19.33
2019-01-02T06:42:28.141Z,15.27
2019-01-02T06:45:00.208Z,14.67
2019-01-02T06:47:32.252Z,16.43
2019-01-02T06:50:07.062Z,11.07
2019-01-02T06:52:39.064Z,12.03
2019-01-02T06:55:11.087Z,15.27
2019-01-02T06:57:43.045Z,16.80
2019-01-02T07:00:36.556Z,19.63
2019-01-02T07:03:08.544Z,16.33
2019-01-02T07:05:40.527Z,16.47
2019-01-02T07:08:12.491Z,17.50
2019-01-02T07:10:44.524Z,16.03
2019-01-02T07:13:16.516Z,15.03
2019-01-02T07:15:48.594Z,12.63
2019-01-02T07:18:20.553Z,17.37
2019-01-02T07:20:52.836Z,13.77
2019-01-02T07:23:24.796Z,12.57
2019-01-02T07:25:56.823Z,14.53
2019-01-02T07:28:28.793Z,13.80
2019-01-02T07:31:00.827Z,16.77
2019-01-02T07:34:23.467Z,17.67
2019-01-02T07:37:20.222Z,15.50
2019-01-02T07:40:26.844Z,11.80
2019-01-02T07:43:34.994Z,16.50
2019-01-02T07:46:53.229Z,12.83
2019-01-02T07:50:18.116Z,17.90
2019-01-02T07:53:19.095Z,13.30
2019-01-02T07:56:27.554Z,15.57
2019-01-02T07:59:45.255Z,14.63
2019-01-02T08:02:44.264Z,15.73
2019-01-02T08:06:05.483Z,15.73
2019-01-02T08:09:28.343Z,12.37
2019-01-02T08:12:31.275Z,14.63
2019-01-02T08:15:56.903Z,12.37
2019-01-02T08:19:15.793Z,17.20
2019-01-02T08:22:43.488Z,16.87
2019-01-02T08:25:41.495Z,14.07
2019-01-02T08:29:00.634Z,17.47
2019-01-02T08:32:11.433Z,13.27
2019-01-02T08:35:09.508Z,15.10
2019-01-02T08:38:21.096Z,20.77
2019-01-02T08:41:36.277Z,10.70
2019-01-02T08:44:34.144Z,12.47
2019-01-02T08:47:44.047Z,20.20
2019-01-02T08:50:53.679Z,13.03
2019-01-02T08:54:01.738Z,19.43
2019-01-02T08:57:36.517Z,18.43
2019-01-02T09:00:58.225Z,14.27
2019-01-02T09:04:20.948Z,12.83
2019-01-02T09:07:36.702Z,12.70
2019-01-02T09:10:50.946Z,17.53
2019-01-02T09:14:04.708Z,16.03
2019-01-02T09:17:04.560Z,15.97
2019-01-02T09:20:09.085Z,17.43
2019-01-02T09:23:28.718Z,19.47
2019-01-02T09:26:33.183Z,13.07
2019-01-02T09:29:37.727Z,10.17
2019-01-02T09:32:43.678Z,14.10
2019-01-02T09:35:42.277Z,13.73
2019-01-02T09:38:43.058Z,18.53
2019-01-02T09:41:42.707Z,16.30
2019-01-02T09:45:08.839Z,13.13
2019-01-02T09:48:01.473Z,19.60
2019-01-02T09:50:59.436Z,13.60
2019-01-02T09:54:24.699Z,14.13
2019-01-02T09:57:32.482Z,14.83
2019-01-02T10:01:07.576Z,15.87
2019-01-02T10:04:35.788Z,21.03
2019-01-02T10:07:29.341Z,13.63
2019-01-02T10:10:37.826Z,16.50
2019-01-02T10:14:12.998Z,13.60
2019-01-02T10:17:28.590Z,17.97
2019-01-02T10:20:30.994Z,15.90
2019-01-02T10:23:39.383Z,16.10
2019-01-02T10:26:28.898Z,17.37
2019-01-02T10:29:45.913Z,16.33
2019-01-02T10:32:49.286Z,17.30
2019-01-02T10:35:46.857Z,20.93
2019-01-02T10:39:09.602Z,16.33
2019-01-02T10:42:41.801Z,15.30
2019-01-02T10:45:39.940Z,18.13
2019-01-02T10:48:55.846Z,16.67
2019-01-02T10:52:23.488Z,15.97
2019-01-02T10:55:23.176Z,14.93
2019-01-02T10:58:36.638Z,19.87
2019-01-02T11:01:52.593Z,15.20
2019-01-02T11:05:05.522Z,14.37
2019-01-02T11:08:05.998Z,16.40
2019-01-02T11:11:34.696Z,14.80
2019-01-02T11:14:50.561Z,16.40
2019-01-02T11:17:47.267Z,15.67
2019-01-02T11:21:22.583Z,18.73
2019-01-02T11:24:39.465Z,18.00
2019-01-02T11:27:52.848Z,13.80
2019-01-02T11:30:41.038Z,15.53
2019-01-02T11:33:41.064Z,16.80
2019-01-02T11:37:04.129Z,17.23
2019-01-02T11:40:12.620Z,11.67
2019-01-02T11:43:22.025Z,18.20
2019-01-02T11:45:54.025Z,16.67
2019-01-02T11:48:26.068Z,20.47
2019-01-02T11:50:58.043Z,14.53
2019-01-02T11:53:30.072Z,17.23
2019-01-02T11:56:02.089Z,21.03
2019-01-02T11:58:34.110Z,24.17
2019-01-02T12:01:06.121Z,26.20
2019-01-02T12:03:38.145Z,25.17
2019-01-02T12:06:10.128Z,17.50
2019-01-02T12:08:42.187Z,24.70
2019-01-02T12:11:14.231Z,17.97
2019-01-02T12:13:46.282Z,19.70
2019-01-02T12:16:18.318Z,18.27
2019-01-02T12:18:50.317Z,16.87
2019-01-02T12:21:22.338Z,18.93
2019-01-02T12:23:54.378Z,18.70
2019-01-02T12:26:26.532Z,14.57
2019-01-02T12:28:58.598Z,16.40
2019-01-02T12:31:30.617Z,18.53
2019-01-02T12:34:02.652Z,22.00
2019-01-02T12:36:34.666Z,16.10
2019-01-02T12:39:06.798Z,14.67
2019-01-02T12:41:38.795Z,17.30
2019-01-02T12:44:10.785Z,11.47
2019-01-02T12:46:42.825Z,16.50
2019-01-02T12:49:14.827Z,21.90
2019-01-02T12:51:46.887Z,15.00
2019-01-02T12:54:18.898Z,17.90
2019-01-02T12:56:50.909Z,17.77
2019-01-02T12:59:25.505Z,17.43
2019-01-02T13:02:36.535Z,16.67
2019-01-02T13:05:47.416Z,14.13
2019-01-02T13:08:58.334Z,13.77
2019-01-02T13:12:09.291Z,17.50
2019-01-02T13:15:05.290Z,19.27
2019-01-02T13:18:16.251Z,16.87
2019-01-02T13:21:15.378Z,29.53
2019-01-02T13:24:15.159Z,16.17
2019-01-02T13:26:53.510Z,11.60
2019-01-02T13:30:04.563Z,11.93
2019-01-02T13:33:00.188Z,19.23
2019-01-02T13:36:11.130Z,15.87
2019-01-02T13:39:22.032Z,17.00
2019-01-02T13:42:27.018Z,15.33
2019-01-02T13:45:21.594Z,14.57
2019-01-02T13:48:32.559Z,12.47
2019-01-02T13:51:09.062Z,14.90
2019-01-02T13:53:41.088Z,10.57
2019-01-02T13:56:16.655Z,10.50
2019-01-02T13:58:48.710Z,12.23
2019-01-02T14:01:20.740Z,10.60
2019-01-02T14:03:55.947Z,10.03
2019-01-02T14:06:27.949Z,12.77
2019-01-02T14:08:59.986Z,13.07
2019-01-02T14:11:32.025Z,10.07
2019-01-02T14:14:04.037Z,13.10
2019-01-02T14:16:36.051Z,11.97
2019-01-02T14:19:08.133Z,12.00
2019-01-02T14:21:40.160Z,10.03
2019-01-02T14:24:12.157Z,12.30
2019-01-02T14:26:44.287Z,13.43
2019-01-02T14:29:16.320Z,14.97
2019-01-02T14:31:48.353Z,12.23
2019-01-02T14:34:20.397Z,11.90
2019-01-02T14:36:52.430Z,12.13
2019-01-02T14:39:24.456Z,14.13
2019-01-02T14:41:56.475Z,13.03
2019-01-02T14:44:28.460Z,16.67
2019-01-02T14:47:00.519Z,14.33
2019-01-02T14:49:32.527Z,15.00
2019-01-02T14:52:04.548Z,16.60
2019-01-02T14:54:36.545Z,14.13
2019-01-02T14:57:08.572Z,14.33
2019-01-02T14:59:40.562Z,14.37
2019-01-02T15:02:12.647Z,14.60
2019-01-02T15:04:44.632Z,15.97
2019-01-02T15:07:16.712Z,10.63
2019-01-02T15:09:48.742Z,13.37
2019-01-02T15:12:20.818Z,16.43
2019-01-02T15:14:52.858Z,16.20
2019-01-02T15:17:25.316Z,14.23
2019-01-02T15:19:58.835Z,12.43
2019-01-02T15:22:30.890Z,18.27
2019-01-02T15:25:02.992Z,15.47
2019-01-02T15:27:34.977Z,12.40
2019-01-02T15:30:10.318Z,13.80
2019-01-02T15:32:42.356Z,14.87
2019-01-02T15:35:14.372Z,13.30
2019-01-02T15:37:46.397Z,14.27
2019-01-02T15:40:18.370Z,15.40
2019-01-02T15:42:50.416Z,13.37
2019-01-02T15:45:22.394Z,12.40
2019-01-02T15:47:54.453Z,11.77
2019-01-02T15:50:26.459Z,11.50
2019-01-02T15:52:58.593Z,15.33
2019-01-02T15:55:30.649Z,12.60
2019-01-02T15:58:02.799Z,11.07
2019-01-02T16:00:34.833Z,12.10
2019-01-02T16:03:06.865Z,13.17
2019-01-02T16:05:38.879Z,9.60
2019-01-02T16:08:10.906Z,9.27
2019-01-02T16:11:02.511Z,11.57
2019-01-02T16:13:34.538Z,8.57
2019-01-02T16:16:06.597Z,12.33
2019-01-02T16:18:38.793Z,9.70
2019-01-02T16:27:44.996Z,8.73
2019-01-02T16:30:17.024Z,7.67
2019-01-02T16:32:49.055Z,7.60
2019-01-02T16:35:21.081Z,7.77
2019-01-02T16:37:53.123Z,6.07
2019-01-02T16:40:25.207Z,8.03
2019-01-02T16:42:57.219Z,6.47
2019-01-02T16:45:29.337Z,7.60
2019-01-02T16:48:01.365Z,10.33
2019-01-02T16:50:33.411Z,7.67
2019-01-02T16:53:05.473Z,9.60
2019-01-02T16:55:37.503Z,10.93
2019-01-02T16:58:09.581Z,8.93
2019-01-02T17:00:41.693Z,7.77
2019-01-02T17:03:13.779Z,8.40
2019-01-02T17:05:45.810Z,7.17
2019-01-02T17:08:17.842Z,13.03
2019-01-02T17:10:49.872Z,9.80
2019-01-02T17:13:21.982Z,10.37
2019-01-02T17:15:53.991Z,9.33
2019-01-02T17:18:26.030Z,9.03
2019-01-02T17:20:58.065Z,6.00
2019-01-02T17:23:30.117Z,7.17
2019-01-02T17:26:02.137Z,7.80
2019-01-02T17:28:34.306Z,6.07
2019-01-02T17:31:06.316Z,5.97
2019-01-02T17:33:38.370Z,6.17
2019-01-02T17:36:10.334Z,8.33
2019-01-02T17:38:42.374Z,6.97
2019-01-02T17:41:14.420Z,26.53
2019-01-02T17:43:46.485Z,12.83
2019-01-02T17:46:18.540Z,7.07
2019-01-02T17:48:50.559Z,6.03
2019-01-02T17:51:22.572Z,7.40
2019-01-02T17:53:55.896Z,6.37
2019-01-02T17:56:27.961Z,7.43
2019-01-02T17:59:00.018Z,6.80
2019-01-02T18:01:32.056Z,8.50
2019-01-02T18:04:04.098Z,6.73
2019-01-02T18:06:36.265Z,9.17
2019-01-02T18:09:08.525Z,8.73
2019-01-02T18:11:40.637Z,11.20
2019-01-02T18:14:12.758Z,9.50
2019-01-02T18:16:44.748Z,12.67
2019-01-02T18:19:17.145Z,11.43
2019-01-02T18:21:49.206Z,9.77
2019-01-02T18:24:21.333Z,8.27
2019-01-02T18:26:53.346Z,6.87
2019-01-02T18:29:25.377Z,8.33
2019-01-02T18:31:57.456Z,8.10
2019-01-02T18:34:29.521Z,6.73
2019-01-02T18:37:01.597Z,6.43
2019-01-02T18:39:34.150Z,9.30
2019-01-02T18:42:06.360Z,7.70
2019-01-02T18:44:38.446Z,10.43
2019-01-02T18:47:10.606Z,8.30
2019-01-02T18:49:42.661Z,10.10
2019-01-02T18:52:14.701Z,6.33
2019-01-02T18:54:46.758Z,8.67
2019-01-02T18:57:18.803Z,9.10
2019-01-02T18:59:50.876Z,7.03
2019-01-02T19:02:22.980Z,9.47
2019-01-02T19:04:55.039Z,7.30
2019-01-02T19:07:27.163Z,5.97
2019-01-02T19:09:59.219Z,7.77
2019-01-02T19:12:31.287Z,8.17
2019-01-02T19:15:04.120Z,5.47
2019-01-02T19:17:36.234Z,9.40
2019-01-02T19:20:08.219Z,9.20
2019-01-02T19:22:40.370Z,12.67
2019-01-02T19:25:12.473Z,12.00
2019-01-02T19:27:44.539Z,15.23
2019-01-02T19:30:16.617Z,14.13
2019-01-02T19:32:48.779Z,10.27
2019-01-02T19:35:20.940Z,10.80
2019-01-02T19:37:53.058Z,8.30
2019-01-02T19:40:25.159Z,10.73
2019-01-02T19:42:57.234Z,7.63
2019-01-02T19:45:29.330Z,8.50
2019-01-02T19:48:01.561Z,9.07
2019-01-02T19:50:33.636Z,10.27
2019-01-02T19:53:05.711Z,12.57
2019-01-02T19:55:37.789Z,19.53
2019-01-02T19:58:09.873Z,14.43
2019-01-02T20:00:41.934Z,10.77
2019-01-02T20:03:14.007Z,16.33
2019-01-02T20:05:46.098Z,19.60
2019-01-02T20:08:18.181Z,10.77
2019-01-02T20:10:50.315Z,32.90
2019-01-02T20:13:22.526Z,22.57
2019-01-02T20:16:22.027Z,31.63
2019-01-02T20:18:54.122Z,25.27
2019-01-02T20:21:26.178Z,17.53
2019-01-02T20:23:58.272Z,12.30
2019-01-02T20:26:31.752Z,8.77
2019-01-02T20:29:04.060Z,6.83
2019-01-02T20:31:36.146Z,6.87
2019-01-02T20:34:08.164Z,7.73
2019-01-02T20:36:40.786Z,4.73
2019-01-02T20:39:13.216Z,5.93
2019-01-02T20:41:45.310Z,4.47
2019-01-02T20:44:17.330Z,6.30
2019-01-02T20:46:49.430Z,5.07
2019-01-02T20:49:21.495Z,5.17
2019-01-02T20:51:53.617Z,6.07
2019-01-02T20:54:25.630Z,5.10
2019-01-02T20:56:57.722Z,6.03
2019-01-02T20:59:29.741Z,12.23
2019-01-02T21:02:01.813Z,7.20
2019-01-02T21:04:33.884Z,6.90
2019-01-02T21:07:05.963Z,7.53
2019-01-02T21:09:37.962Z,9.70
2019-01-02T21:12:09.997Z,11.10
2019-01-02T21:14:42.101Z,17.77
2019-01-02T21:17:14.159Z,22.07
2019-01-02T21:19:46.227Z,13.27
2019-01-02T21:22:18.304Z,11.53
2019-01-02T21:24:50.347Z,9.33
2019-01-02T21:27:22.364Z,7.87
2019-01-02T21:29:54.406Z,8.37
2019-01-02T21:32:26.450Z,7.00
2019-01-02T21:34:58.509Z,8.83
2019-01-02T21:37:30.645Z,11.60
2019-01-02T21:40:03.011Z,9.20
2019-01-02T21:42:35.139Z,11.20
2019-01-02T21:45:07.291Z,14.93
2019-01-02T21:47:39.384Z,15.47
2019-01-02T21:50:11.388Z,13.93
2019-01-02T21:52:43.450Z,11.37
2019-01-02T21:55:15.519Z,16.37
2019-01-02T21:57:48.167Z,11.73
2019-01-02T22:00:20.358Z,9.43
2019-01-02T22:02:52.483Z,10.97
2019-01-02T22:05:24.505Z,13.03
2019-01-02T22:07:56.571Z,13.73
2019-01-02T22:10:28.618Z,13.40
2019-01-02T22:13:00.791Z,12.80
2019-01-02T22:15:32.860Z,11.27
2019-01-02T22:18:05.079Z,9.33
2019-01-02T22:20:37.119Z,10.73
2019-01-02T22:23:09.224Z,10.97
2019-01-02T22:25:41.223Z,9.73
2019-01-02T22:28:13.284Z,10.23
2019-01-02T22:30:45.352Z,9.40
2019-01-02T22:33:17.411Z,11.50
2019-01-02T22:35:49.484Z,15.10
2019-01-02T22:38:21.516Z,14.27
2019-01-02T22:40:53.574Z,16.30
2019-01-02T22:43:25.615Z,15.77
2019-01-02T22:45:57.666Z,10.90
2019-01-02T22:48:29.701Z,10.67
2019-01-02T22:51:01.762Z,12.17
2019-01-02T22:53:33.793Z,9.33
2019-01-02T22:56:06.798Z,12.27
2019-01-02T22:58:39.054Z,10.50
2019-01-02T23:01:39.767Z,12.10
2019-01-02T23:04:21.781Z,13.17
2019-01-02T23:07:11.978Z,9.17
2019-01-02T23:10:06.227Z,9.63
2019-01-02T23:13:03.667Z,11.10
2019-01-02T23:15:54.100Z,9.50
2019-01-02T23:18:44.580Z,10.20
2019-01-02T23:21:35.054Z,11.93
2019-01-02T23:24:42.008Z,9.33
2019-01-02T23:27:32.344Z,11.43
2019-01-02T23:30:23.424Z,8.53
2019-01-02T23:33:30.504Z,10.87
2019-01-02T23:36:20.661Z,10.67
2019-01-02T23:39:11.449Z,11.53
2019-01-02T23:42:01.951Z,8.13
2019-01-02T23:44:52.404Z,9.47
2019-01-02T23:47:42.658Z,11.50
2019-01-02T23:50:33.091Z,11.60
2019-01-02T23:53:33.940Z,9.67
2019-01-02T23:56:24.247Z,10.30
2019-01-02T23:59:24.891Z,9.37
